createdAt,value
2022-12-11T00:01:42.929Z,90.57
2022-12-11T00:04:09.228Z,84.75
2022-12-11T00:06:35.500Z,85.95
2022-12-11T00:09:01.840Z,83.13
2022-12-11T00:11:28.100Z,85.95
2022-12-11T00:13:54.380Z,85.03
2022-12-11T00:16:26.544Z,81.15
2022-12-11T00:18:53.538Z,79.55
2022-12-11T00:21:19.944Z,77.15
2022-12-11T00:23:46.252Z,78.82
2022-12-11T00:26:12.505Z,76.18
2022-12-11T00:28:38.771Z,75.22
2022-12-11T00:31:05.303Z,75.85
2022-12-11T00:33:31.737Z,76.32
2022-12-11T00:35:58.119Z,73.38
2022-12-11T00:38:24.419Z,72.75
2022-12-11T00:40:50.708Z,71.25
2022-12-11T00:43:16.944Z,71.57
2022-12-11T00:45:43.338Z,69.97
2022-12-11T00:48:09.759Z,69.80
2022-12-11T00:50:36.211Z,69.10
2022-12-11T00:53:02.564Z,65.03
2022-12-11T00:55:28.816Z,68.88
2022-12-11T00:57:55.279Z,68.50
2022-12-11T01:00:21.515Z,66.07
2022-12-11T01:02:50.623Z,63.63
2022-12-11T01:05:16.936Z,61.30
2022-12-11T01:07:43.348Z,63.72
2022-12-11T01:10:09.663Z,61.13
2022-12-11T01:12:36.017Z,62.95
2022-12-11T01:15:02.547Z,59.35
2022-12-11T01:17:28.920Z,58.47
2022-12-11T01:19:55.267Z,58.00
2022-12-11T01:22:21.672Z,58.67
2022-12-11T01:24:47.991Z,58.33
2022-12-11T01:27:14.252Z,56.03
2022-12-11T01:29:40.600Z,56.17
2022-12-11T01:32:07.015Z,54.03
2022-12-11T01:34:33.294Z,59.58
2022-12-11T01:36:59.564Z,53.33
2022-12-11T01:39:26.023Z,52.28
2022-12-11T01:41:52.296Z,52.60
2022-12-11T01:44:18.649Z,54.17
2022-12-11T01:46:44.915Z,50.88
2022-12-11T01:49:11.351Z,53.33
2022-12-11T01:51:37.669Z,50.67
2022-12-11T01:54:03.996Z,48.75
2022-12-11T01:56:30.592Z,51.22
2022-12-11T01:58:56.841Z,46.90
2022-12-11T02:01:23.155Z,47.97
2022-12-11T02:03:50.043Z,48.78
2022-12-11T02:06:16.696Z,47.45
2022-12-11T02:08:43.940Z,45.95
2022-12-11T02:11:10.327Z,46.17
2022-12-11T02:13:37.065Z,47.72
2022-12-11T02:16:04.318Z,46.53
2022-12-11T02:23:45.479Z,41.63
2022-12-11T02:26:11.791Z,42.22
2022-12-11T02:28:38.214Z,41.28
2022-12-11T02:31:04.514Z,41.55
2022-12-11T02:33:30.820Z,40.47
2022-12-11T02:35:57.542Z,40.75
2022-12-11T02:38:23.925Z,43.67
2022-12-11T02:40:50.259Z,41.55
2022-12-11T02:43:16.567Z,40.35
2022-12-11T02:45:42.905Z,40.58
2022-12-11T02:48:09.248Z,37.55
2022-12-11T02:50:35.691Z,38.53
2022-12-11T02:53:02.060Z,39.75
2022-12-11T02:55:28.405Z,35.65
2022-12-11T02:57:54.761Z,38.13
2022-12-11T03:00:21.128Z,34.83
2022-12-11T03:02:47.597Z,37.15
2022-12-11T03:05:14.032Z,36.78
2022-12-11T03:07:40.378Z,38.08
2022-12-11T03:10:06.624Z,36.72
2022-12-11T03:12:32.992Z,35.30
2022-12-11T03:15:00.296Z,34.55
2022-12-11T03:17:26.756Z,34.67
2022-12-11T03:19:53.250Z,35.05
2022-12-11T03:22:19.664Z,33.28
2022-12-11T03:24:45.959Z,32.05
2022-12-11T03:27:12.368Z,32.65
2022-12-11T03:29:38.834Z,33.50
2022-12-11T03:32:05.112Z,35.00
2022-12-11T03:34:31.402Z,32.85
2022-12-11T03:36:57.651Z,33.25
2022-12-11T03:39:23.953Z,32.63
2022-12-11T03:41:50.315Z,32.10
2022-12-11T03:44:16.627Z,31.73
2022-12-11T03:46:42.963Z,30.23
2022-12-11T03:49:09.270Z,32.17
2022-12-11T03:51:35.586Z,30.48
2022-12-11T03:54:02.012Z,32.42
2022-12-11T03:56:28.300Z,30.23
2022-12-11T03:58:54.531Z,34.67
2022-12-11T04:01:20.970Z,30.65
2022-12-11T04:03:47.993Z,29.67
2022-12-11T04:06:15.035Z,32.20
2022-12-11T04:08:41.838Z,29.85
2022-12-11T04:11:08.841Z,27.48
2022-12-11T04:13:36.683Z,32.05
2022-12-11T04:16:03.692Z,26.70
2022-12-11T04:18:30.304Z,29.65
2022-12-11T04:20:57.555Z,29.08
2022-12-11T04:23:24.069Z,28.38
2022-12-11T04:25:50.684Z,27.42
2022-12-11T04:28:17.512Z,28.08
2022-12-11T04:30:45.115Z,28.77
2022-12-11T04:33:11.759Z,27.52
2022-12-11T04:35:38.277Z,28.75
2022-12-11T04:38:04.663Z,26.55
2022-12-11T04:40:30.963Z,26.50
2022-12-11T04:42:57.215Z,27.75
2022-12-11T04:45:23.537Z,27.25
2022-12-11T04:47:49.815Z,26.33
2022-12-11T04:50:16.199Z,27.23
2022-12-11T04:52:42.499Z,28.52
2022-12-11T04:55:09.156Z,27.88
2022-12-11T04:57:35.801Z,27.90
2022-12-11T05:00:02.094Z,26.13
2022-12-11T05:02:28.406Z,26.73
2022-12-11T05:04:54.786Z,25.00
2022-12-11T05:07:21.119Z,24.88
2022-12-11T05:09:47.423Z,25.30
2022-12-11T05:12:13.823Z,26.02
2022-12-11T05:14:40.176Z,25.45
2022-12-11T05:17:06.552Z,26.42
2022-12-11T05:19:32.880Z,27.08
2022-12-11T05:21:59.188Z,25.85
2022-12-11T05:24:25.487Z,24.02
2022-12-11T05:26:51.723Z,24.73
2022-12-11T05:29:17.985Z,25.15
2022-12-11T05:31:45.292Z,25.85
2022-12-11T05:34:11.607Z,24.80
2022-12-11T05:36:37.869Z,25.38
2022-12-11T05:39:04.173Z,26.08
2022-12-11T05:41:30.491Z,23.55
2022-12-11T05:43:56.856Z,25.15
2022-12-11T05:46:23.165Z,24.60
2022-12-11T05:48:49.506Z,24.05
2022-12-11T05:51:15.892Z,27.35
2022-12-11T05:53:42.217Z,25.67
2022-12-11T05:56:08.739Z,23.33
2022-12-11T05:58:35.057Z,24.48
2022-12-11T06:01:01.416Z,24.20
2022-12-11T06:03:27.818Z,25.95
2022-12-11T06:05:54.091Z,22.33
2022-12-11T06:08:20.711Z,22.02
2022-12-11T06:10:47.078Z,22.80
2022-12-11T06:13:13.419Z,24.00
2022-12-11T06:15:39.750Z,25.13
2022-12-11T06:18:06.184Z,22.45
2022-12-11T06:20:32.644Z,25.00
2022-12-11T06:22:59.075Z,23.17
2022-12-11T06:25:25.367Z,23.25
2022-12-11T06:27:51.649Z,25.45
2022-12-11T06:30:17.995Z,23.83
2022-12-11T06:32:44.282Z,23.83
2022-12-11T06:35:10.721Z,22.52
2022-12-11T06:37:37.374Z,23.55
2022-12-11T06:40:03.695Z,24.13
2022-12-11T06:42:29.994Z,23.35
2022-12-11T06:44:56.224Z,21.63
2022-12-11T06:47:22.506Z,22.55
2022-12-11T06:49:48.807Z,23.75
2022-12-11T06:52:18.362Z,22.27
2022-12-11T06:54:45.277Z,22.70
2022-12-11T06:57:11.620Z,23.63
2022-12-11T06:59:37.970Z,23.38
2022-12-11T07:02:04.368Z,24.25
2022-12-11T07:04:30.777Z,25.67
2022-12-11T07:06:57.100Z,23.65
2022-12-11T07:09:23.334Z,23.90
2022-12-11T07:11:49.607Z,22.77
2022-12-11T07:14:15.915Z,22.83
2022-12-11T07:16:42.345Z,23.13
2022-12-11T07:19:08.703Z,24.45
2022-12-11T07:21:35.118Z,23.40
2022-12-11T07:24:01.409Z,24.63
2022-12-11T07:26:27.821Z,26.42
2022-12-11T07:28:54.060Z,22.58
2022-12-11T07:31:20.513Z,22.33
2022-12-11T07:33:46.839Z,23.58
2022-12-11T07:36:13.189Z,23.88
2022-12-11T07:38:39.436Z,24.83
2022-12-11T07:41:05.830Z,24.17
2022-12-11T07:43:33.079Z,26.65
2022-12-11T07:45:59.571Z,25.98
2022-12-11T07:48:25.878Z,24.70
2022-12-11T07:50:52.149Z,24.90
2022-12-11T07:53:18.559Z,27.65
2022-12-11T07:55:44.846Z,23.92
2022-12-11T07:58:11.190Z,26.92
2022-12-11T08:00:37.558Z,24.30
2022-12-11T08:03:03.860Z,26.70
2022-12-11T08:05:30.197Z,25.17
2022-12-11T08:07:56.591Z,24.80
2022-12-11T08:10:22.927Z,25.73
2022-12-11T08:12:49.219Z,28.10
2022-12-11T08:15:15.497Z,27.38
2022-12-11T08:17:41.771Z,25.95
2022-12-11T08:20:08.077Z,25.77
2022-12-11T08:22:34.593Z,25.25
2022-12-11T08:25:00.948Z,26.13
2022-12-11T08:27:27.374Z,23.90
2022-12-11T08:29:53.768Z,26.77
2022-12-11T08:32:20.190Z,27.25
2022-12-11T08:34:46.705Z,28.33
2022-12-11T08:37:13.012Z,25.20
2022-12-11T08:39:39.585Z,27.17
2022-12-11T08:42:05.838Z,27.42
2022-12-11T08:44:32.506Z,27.60
2022-12-11T08:46:58.996Z,27.25
2022-12-11T08:49:27.622Z,27.58
2022-12-11T08:51:57.547Z,27.65
2022-12-11T08:54:24.049Z,30.58
2022-12-11T08:56:54.808Z,29.67
2022-12-11T08:59:24.072Z,23.83
2022-12-11T09:01:50.495Z,28.90
2022-12-11T09:04:16.913Z,26.73
2022-12-11T09:06:43.231Z,27.90
2022-12-11T09:09:09.513Z,25.83
2022-12-11T09:11:35.831Z,24.20
2022-12-11T09:14:07.246Z,27.90
2022-12-11T09:16:34.107Z,24.95
2022-12-11T09:19:00.371Z,26.25
2022-12-11T09:21:26.636Z,24.40
2022-12-11T09:23:53.095Z,25.75
2022-12-11T09:26:19.455Z,25.00
2022-12-11T09:28:46.874Z,90.53
2022-12-11T09:41:47.772Z,205.55
2022-12-11T09:49:24.802Z,186.80
2022-12-11T09:51:52.751Z,187.45
2022-12-11T09:54:19.088Z,179.30
2022-12-11T09:56:45.412Z,174.88
2022-12-11T09:59:11.832Z,377.75
2022-12-11T10:01:38.192Z,376.73
2022-12-11T10:04:04.505Z,320.00
2022-12-11T10:06:30.805Z,303.95
2022-12-11T10:08:57.055Z,271.10
2022-12-11T10:11:23.290Z,251.35
2022-12-11T10:13:49.607Z,234.40
2022-12-11T10:16:15.935Z,222.43
2022-12-11T10:18:42.206Z,203.05
2022-12-11T10:21:08.470Z,188.82
2022-12-11T10:23:35.001Z,182.38
2022-12-11T10:33:55.809Z,139.63
2022-12-11T10:36:22.193Z,126.65
2022-12-11T10:43:57.821Z,109.55
2022-12-11T10:46:24.139Z,108.47
2022-12-11T10:48:50.437Z,181.55
2022-12-11T10:51:16.858Z,195.82
2022-12-11T10:53:43.193Z,186.13
2022-12-11T10:56:09.540Z,171.75
2022-12-11T11:01:17.878Z,149.65
2022-12-11T11:03:44.270Z,141.60
2022-12-11T11:06:10.563Z,128.05
2022-12-11T11:08:36.855Z,120.72
2022-12-11T11:11:03.178Z,116.13
2022-12-11T11:13:29.585Z,107.75
2022-12-11T11:15:55.955Z,102.90
2022-12-11T11:18:22.449Z,94.70
2022-12-11T11:20:48.711Z,90.15
2022-12-11T11:23:15.164Z,85.18
2022-12-11T11:25:41.639Z,81.88
2022-12-11T11:28:07.916Z,80.65
2022-12-11T11:30:34.243Z,74.60
2022-12-11T11:33:00.535Z,73.03
2022-12-11T11:35:26.801Z,66.93
2022-12-11T11:37:53.294Z,165.43
2022-12-11T11:42:49.213Z,198.15
2022-12-11T11:45:15.522Z,187.95
2022-12-11T11:47:41.834Z,173.75
2022-12-11T11:50:08.075Z,162.00
2022-12-11T11:52:34.371Z,158.45
2022-12-11T11:55:00.627Z,142.60
2022-12-11T11:57:26.986Z,133.77
2022-12-11T11:59:53.436Z,201.73
2022-12-11T12:02:19.890Z,254.25
2022-12-11T12:04:46.199Z,234.18
2022-12-11T12:07:12.490Z,217.27
2022-12-11T12:09:38.861Z,199.48
2022-12-11T12:12:05.276Z,194.02
2022-12-11T12:17:17.880Z,169.98
2022-12-11T12:19:47.523Z,171.63
2022-12-11T12:22:13.810Z,152.70
2022-12-11T12:24:40.152Z,148.02
2022-12-11T12:27:17.698Z,140.85
2022-12-11T12:29:52.725Z,130.18
2022-12-11T12:32:19.096Z,125.30
2022-12-11T12:34:45.500Z,210.38
2022-12-11T12:37:11.826Z,260.55
2022-12-11T12:39:38.078Z,225.63
2022-12-11T12:42:07.726Z,208.95
2022-12-11T12:52:16.920Z,155.13
2022-12-11T12:54:43.288Z,155.77
2022-12-11T12:57:09.775Z,142.57
2022-12-11T12:59:36.384Z,254.30
2022-12-11T13:02:02.837Z,239.23
2022-12-11T13:04:54.345Z,268.38
2022-12-11T13:07:15.395Z,239.20
2022-12-11T13:09:41.809Z,220.60
2022-12-11T13:12:08.228Z,207.70
2022-12-11T13:14:34.632Z,198.15
2022-12-11T13:17:00.977Z,348.17
2022-12-11T13:22:02.927Z,307.73
2022-12-11T13:24:29.293Z,289.92
2022-12-11T13:26:55.553Z,304.13
2022-12-11T13:29:21.832Z,296.80
2022-12-11T13:53:08.960Z,434.73
2022-12-11T13:58:10.415Z,440.85
2022-12-11T14:00:36.748Z,680.38
2022-12-11T14:03:03.434Z,668.88
2022-12-11T14:05:29.899Z,657.30
2022-12-11T14:07:56.418Z,663.53
2022-12-11T14:10:22.903Z,663.22
2022-12-11T14:12:49.178Z,663.83
2022-12-11T14:15:15.471Z,653.90
2022-12-11T14:17:41.707Z,637.40
2022-12-11T14:20:08.144Z,608.92
2022-12-11T14:22:34.632Z,667.60
2022-12-11T14:25:00.862Z,673.38
2022-12-11T14:27:27.101Z,662.47
2022-12-11T14:29:53.423Z,650.63
2022-12-11T14:34:53.234Z,640.22
2022-12-11T14:37:19.634Z,630.78
2022-12-11T14:39:45.978Z,623.25
2022-12-11T14:44:41.449Z,595.05
2022-12-11T14:47:07.732Z,751.33
2022-12-11T14:49:34.166Z,829.95
2022-12-11T14:52:00.865Z,836.88
2022-12-11T14:54:27.369Z,846.30
2022-12-11T14:56:53.709Z,831.47
2022-12-11T14:59:20.173Z,835.58
2022-12-11T15:01:46.456Z,835.67
2022-12-11T15:04:12.764Z,823.20
2022-12-11T15:06:39.209Z,823.75
2022-12-11T15:09:05.542Z,819.72
2022-12-11T15:11:31.919Z,800.70
2022-12-11T15:13:58.316Z,804.45
2022-12-11T15:16:24.673Z,523.55
2022-12-11T15:21:27.057Z,250.18
2022-12-11T15:23:53.696Z,293.85
2022-12-11T15:26:20.236Z,336.00
2022-12-11T15:28:46.571Z,315.70
2022-12-11T15:31:12.838Z,183.82
2022-12-11T15:33:39.283Z,124.93
2022-12-11T15:36:05.749Z,165.70
2022-12-11T15:38:32.082Z,162.27
2022-12-11T15:40:58.505Z,155.60
2022-12-11T15:43:24.972Z,370.73
2022-12-11T15:45:51.534Z,287.23
2022-12-11T15:48:18.060Z,446.23
2022-12-11T15:50:44.368Z,463.98
2022-12-11T15:53:10.655Z,451.35
2022-12-11T15:55:36.978Z,436.55
2022-12-11T15:58:03.289Z,424.25
2022-12-11T16:00:29.669Z,432.02
2022-12-11T16:02:55.999Z,420.38
2022-12-11T16:05:22.344Z,415.45
2022-12-11T16:07:48.764Z,417.77
2022-12-11T16:10:15.189Z,412.35
2022-12-11T16:12:41.614Z,398.67
2022-12-11T16:15:07.933Z,395.02
2022-12-11T16:17:34.212Z,389.75
2022-12-11T16:20:00.521Z,383.98
2022-12-11T16:22:26.878Z,374.98
2022-12-11T16:24:53.297Z,373.67
2022-12-11T16:27:23.037Z,368.63
2022-12-11T16:29:49.830Z,357.52
2022-12-11T16:32:16.148Z,354.58
2022-12-11T16:34:42.396Z,349.55
2022-12-11T16:37:08.775Z,350.98
2022-12-11T16:39:35.080Z,345.00
2022-12-11T16:42:01.348Z,326.80
2022-12-11T16:44:27.821Z,328.60
2022-12-11T16:46:54.055Z,324.05
2022-12-11T16:49:20.355Z,325.30
2022-12-11T16:51:46.662Z,315.58
2022-12-11T16:54:13.084Z,308.23
2022-12-11T16:56:39.376Z,307.65
2022-12-11T16:59:05.790Z,306.65
2022-12-11T17:01:32.350Z,297.40
2022-12-11T17:03:58.757Z,285.75
2022-12-11T17:06:25.156Z,285.40
2022-12-11T17:08:51.462Z,280.70
2022-12-11T17:11:17.744Z,271.08
2022-12-11T17:13:44.101Z,272.95
2022-12-11T17:16:10.455Z,270.63
2022-12-11T17:18:37.012Z,258.17
2022-12-11T17:21:03.401Z,260.02
2022-12-11T17:23:29.690Z,258.50
2022-12-11T17:25:56.591Z,247.48
2022-12-11T17:28:22.990Z,251.75
2022-12-11T17:30:49.328Z,244.20
2022-12-11T17:33:15.895Z,239.10
2022-12-11T17:35:42.188Z,233.80
2022-12-11T17:38:08.627Z,238.35
2022-12-11T17:40:35.035Z,229.52
2022-12-11T17:43:01.356Z,231.30
2022-12-11T17:45:27.668Z,227.10
2022-12-11T17:47:53.939Z,219.10
2022-12-11T17:50:20.258Z,221.35
2022-12-11T17:52:46.589Z,216.20
2022-12-11T17:55:13.215Z,208.55
2022-12-11T17:57:39.621Z,210.35
2022-12-11T18:00:05.958Z,203.07
2022-12-11T18:02:32.260Z,198.07
2022-12-11T18:04:58.569Z,204.00
2022-12-11T18:07:24.940Z,197.10
2022-12-11T18:09:51.277Z,194.70
2022-12-11T18:12:17.584Z,191.95
2022-12-11T18:14:43.882Z,190.77
2022-12-11T18:17:10.116Z,184.65
2022-12-11T18:19:39.180Z,183.15
2022-12-11T18:22:09.322Z,179.43
2022-12-11T18:24:35.739Z,173.75
2022-12-11T18:27:02.055Z,173.85
2022-12-11T18:29:28.350Z,168.55
2022-12-11T18:31:54.850Z,172.32
2022-12-11T18:34:21.196Z,165.38
2022-12-11T18:36:47.485Z,166.65
2022-12-11T18:39:13.883Z,157.45
2022-12-11T18:41:40.170Z,159.30
2022-12-11T18:44:09.689Z,156.15
2022-12-11T18:46:36.603Z,152.88
2022-12-11T18:49:02.937Z,154.10
2022-12-11T18:51:29.359Z,145.88
2022-12-11T18:53:55.746Z,154.57
2022-12-11T18:56:22.064Z,147.02
2022-12-11T18:58:48.515Z,147.05
2022-12-11T19:01:14.893Z,142.82
2022-12-11T19:03:41.296Z,142.45
2022-12-11T19:06:07.675Z,139.05
2022-12-11T19:08:33.903Z,138.43
2022-12-11T19:11:00.311Z,136.82
2022-12-11T19:13:26.555Z,133.77
2022-12-11T19:15:53.062Z,129.85
2022-12-11T19:18:19.435Z,124.70
2022-12-11T19:20:51.755Z,125.53
2022-12-11T19:23:21.868Z,122.85
2022-12-11T19:25:48.133Z,125.80
2022-12-11T19:28:14.435Z,120.68
2022-12-11T19:30:40.707Z,122.35
2022-12-11T19:33:07.012Z,119.88
2022-12-11T19:35:33.299Z,120.60
2022-12-11T19:37:59.655Z,116.45
2022-12-11T19:40:26.056Z,113.50
2022-12-11T19:42:52.319Z,110.50
2022-12-11T19:45:18.674Z,113.10
2022-12-11T19:47:45.091Z,110.88
2022-12-11T19:50:11.318Z,110.97
2022-12-11T19:52:42.864Z,110.40
2022-12-11T19:55:12.361Z,104.63
2022-12-11T19:57:38.898Z,100.78
2022-12-11T20:00:05.210Z,102.13
2022-12-11T20:02:31.603Z,99.65
2022-12-11T20:04:57.942Z,100.43
2022-12-11T20:07:30.330Z,104.55
2022-12-11T20:09:56.977Z,98.10
2022-12-11T20:12:23.228Z,98.57
2022-12-11T20:14:49.530Z,95.95
2022-12-11T20:17:16.088Z,97.15
2022-12-11T20:19:42.670Z,94.95
2022-12-11T20:22:08.963Z,90.50
2022-12-11T20:24:35.384Z,93.68
2022-12-11T20:27:01.710Z,88.88
2022-12-11T20:29:28.008Z,88.95
2022-12-11T20:31:54.361Z,89.05
2022-12-11T20:34:20.659Z,87.32
2022-12-11T20:36:46.914Z,85.00
2022-12-11T20:39:13.291Z,89.68
2022-12-11T20:41:39.695Z,84.55
2022-12-11T20:44:05.959Z,82.68
2022-12-11T20:46:32.459Z,78.88
2022-12-11T20:48:58.781Z,79.15
2022-12-11T20:51:26.255Z,78.57
2022-12-11T20:53:52.930Z,81.53
2022-12-11T20:56:19.402Z,78.35
2022-12-11T20:58:45.675Z,73.57
2022-12-11T21:01:11.997Z,77.05
2022-12-11T21:03:41.998Z,73.40
2022-12-11T21:06:08.608Z,71.65
2022-12-11T21:08:34.967Z,74.80
2022-12-11T21:11:01.335Z,68.22
2022-12-11T21:13:27.615Z,71.68
2022-12-11T21:15:53.941Z,68.68
2022-12-11T21:18:20.244Z,69.50
2022-12-11T21:20:46.522Z,69.63
2022-12-11T21:23:12.867Z,69.47
2022-12-11T21:25:39.309Z,69.82
2022-12-11T21:28:05.620Z,68.97
2022-12-11T21:30:31.878Z,65.97
2022-12-11T21:32:58.122Z,67.90
2022-12-11T21:35:24.498Z,65.10
2022-12-11T21:37:50.829Z,66.43
2022-12-11T21:40:17.138Z,64.95
2022-12-11T21:42:43.372Z,61.63
2022-12-11T21:47:56.104Z,61.40
2022-12-11T21:50:22.559Z,60.92
2022-12-11T21:52:48.858Z,59.10
2022-12-11T21:55:15.280Z,61.67
2022-12-11T21:57:41.569Z,59.35
2022-12-11T22:00:07.960Z,58.80
2022-12-11T22:02:40.465Z,58.42
2022-12-11T22:05:07.384Z,56.90
2022-12-11T22:07:33.922Z,56.72
2022-12-11T22:10:00.169Z,56.28
2022-12-11T22:12:26.495Z,54.92
2022-12-11T22:14:52.917Z,57.25
2022-12-11T22:17:19.252Z,51.15
2022-12-11T22:19:45.557Z,52.75
2022-12-11T22:22:11.912Z,54.05
2022-12-11T22:24:38.446Z,54.38
2022-12-11T22:27:04.723Z,54.05
2022-12-11T22:29:30.962Z,49.97
2022-12-11T22:31:57.320Z,52.15
2022-12-11T22:34:23.811Z,48.85
2022-12-11T22:36:50.228Z,51.75
2022-12-11T22:39:16.470Z,48.95
2022-12-11T22:41:42.847Z,48.78
2022-12-11T22:44:09.258Z,49.17
2022-12-11T22:46:35.675Z,49.40
2022-12-11T22:49:02.015Z,46.10
2022-12-11T22:51:28.307Z,46.22
2022-12-11T22:53:54.641Z,43.70
2022-12-11T22:56:20.998Z,47.22
2022-12-11T22:58:47.329Z,42.78
2022-12-11T23:01:13.603Z,43.10
2022-12-11T23:03:39.951Z,45.42
2022-12-11T23:06:06.436Z,46.75
2022-12-11T23:08:32.930Z,46.22
2022-12-11T23:10:59.346Z,44.58
2022-12-11T23:13:25.747Z,44.85
2022-12-11T23:15:52.072Z,43.67
2022-12-11T23:18:18.518Z,45.17
2022-12-11T23:20:44.838Z,43.05
2022-12-11T23:23:14.169Z,41.15
2022-12-11T23:25:40.526Z,40.72
2022-12-11T23:28:07.483Z,42.65
2022-12-11T23:30:34.122Z,40.70
2022-12-11T23:33:00.512Z,40.42
2022-12-11T23:35:26.871Z,38.85
2022-12-11T23:37:53.269Z,44.20
2022-12-11T23:40:19.865Z,39.22
2022-12-11T23:42:46.340Z,39.75
2022-12-11T23:45:12.918Z,37.95
2022-12-11T23:47:39.406Z,39.88
2022-12-11T23:50:05.696Z,38.85
2022-12-11T23:52:31.978Z,35.47
2022-12-11T23:54:58.242Z,36.40
2022-12-11T23:57:24.610Z,38.75
2022-12-11T23:59:50.910Z,37.28
